Terminal Aerodrome Forecast
Issued by NWS

Home | Current Version | Previous Version | Text Only | Print | Product List | Glossary On
Versions: 1 2 3 4 5 6 7 8 9 10 11
000
FTUS46 KLOX 291100
TAFLGB
TAF
KLGB 291135Z 2912/3012 VRB03KT P6SM SKC
     FM291900 17006KT P6SM SKC
     FM300500 VRB03KT P6SM OVC020
     FM301100 16006KT P6SM OVC035=

USA.gov is the U.S. government's official web portal to all federal, state and local government web resources and services.